Time;durP1;ratioP1;P1;durP2;ratioP2;P2;SDS_P1;SDS_P2;PMS_P1;PMS_P2;Temp;Humidity;BMP_temperature;BMP_pressure;BME280_temperature;BME280_humidity;BME280_pressure;Samples;Min_cycle;Max_cycle;Signal;HPM_P1;HPM_P2
2023/02/11 00:02:40;;;;;;;39.30;20.53;;;;;;;-3.24;100.00;98148.56;6210586;22;20112;-93
2023/02/11 00:05:06;;;;;;;36.20;20.03;;;;;;;-3.19;100.00;98145.91;6169768;23;20421;-94
2023/02/11 00:11:20;;;;;;;38.60;20.17;;;;;;;-3.30;100.00;98140.94;6194395;23;20039;-94
2023/02/11 00:13:47;;;;;;;40.77;21.30;;;;;;;-3.30;100.00;98148.66;6165540;23;20451;-95
2023/02/11 00:16:17;;;;;;;43.57;22.60;;;;;;;-3.30;100.00;98148.66;6189985;23;20415;-95
2023/02/11 00:18:43;;;;;;;42.97;21.93;;;;;;;-3.32;100.00;98145.25;6165927;23;20423;-94
2023/02/11 00:21:12;;;;;;;38.57;22.47;;;;;;;-3.32;100.00;98142.69;6166350;23;20423;-94
2023/02/11 00:27:25;;;;;;;40.47;20.70;;;;;;;-3.15;100.00;98139.84;6190573;23;20406;-94
2023/02/11 00:33:38;;;;;;;36.43;19.63;;;;;;;-3.16;100.00;98136.41;6191893;23;20068;-94
2023/02/11 00:36:07;;;;;;;42.03;21.40;;;;;;;-3.18;100.00;98127.88;6210118;23;20420;-94
2023/02/11 00:42:20;;;;;;;40.23;20.70;;;;;;;-3.24;100.00;98130.56;6214658;23;20380;-93
2023/02/11 00:48:33;;;;;;;36.67;19.33;;;;;;;-3.33;100.00;98128.97;6212630;23;20047;-94
2023/02/11 00:51:00;;;;;;;37.67;19.30;;;;;;;-3.26;100.00;98119.44;6166388;23;20416;-94
2023/02/11 00:53:26;;;;;;;43.60;22.07;;;;;;;-3.26;100.00;98114.28;6166280;23;20017;-95
2023/02/11 00:59:39;;;;;;;36.73;21.80;;;;;;;-3.24;100.00;98122.00;6192237;23;20071;-95
2023/02/11 01:02:04;;;;;;;42.27;21.97;;;;;;;-3.34;100.00;98122.16;6194961;23;20436;-94
2023/02/11 01:04:30;;;;;;;42.73;23.77;;;;;;;-3.26;100.00;98114.28;6194464;23;20375;-94
2023/02/11 01:10:42;;;;;;;43.17;22.30;;;;;;;-3.21;100.00;98089.34;6221174;23;20019;-94
2023/02/11 01:13:09;;;;;;;44.67;22.83;;;;;;;-3.13;100.00;98087.44;6170140;23;20419;-95
2023/02/11 01:19:21;;;;;;;41.57;21.30;;;;;;;-3.21;100.00;98079.03;6230897;23;20354;-95
2023/02/11 01:25:34;;;;;;;42.83;21.27;;;;;;;-3.19;100.00;98066.13;6221290;23;20144;-94
2023/02/11 01:28:02;;;;;;;38.07;21.03;;;;;;;-3.25;100.00;98061.97;6194225;23;20490;-94
2023/02/11 01:34:16;;;;;;;40.93;21.30;;;;;;;-3.33;100.00;98054.38;6221143;23;20437;-94
2023/02/11 01:36:42;;;;;;;41.83;20.13;;;;;;;-3.30;100.00;98058.63;6194482;23;20416;-95
2023/02/11 01:42:54;;;;;;;40.87;20.60;;;;;;;-3.47;100.00;98058.09;6223058;23;20043;-94
2023/02/11 01:49:20;;;;;;;43.20;22.63;;;;;;;-3.49;100.00;98070.97;6220638;23;20023;-95
2023/02/11 01:52:02;;;;;;;39.80;22.07;;;;;;;-3.63;100.00;98073.78;6194295;23;20423;-94
2023/02/11 01:58:15;;;;;;;41.57;21.87;;;;;;;-3.75;100.00;98074.03;6220957;23;20351;-96
2023/02/11 02:04:34;;;;;;;39.47;21.13;;;;;;;-3.74;100.00;98070.56;6200065;23;20399;-95
2023/02/11 02:07:10;;;;;;;42.67;22.17;;;;;;;-3.72;100.00;98068.84;6189589;23;20428;-94
2023/02/11 02:09:42;;;;;;;40.20;22.03;;;;;;;-3.66;100.00;98068.72;6191177;23;20492;-95
2023/02/11 02:12:08;;;;;;;32.17;17.00;;;;;;;-3.67;100.00;98077.31;6191387;23;20451;-93
2023/02/11 02:14:39;;;;;;;40.50;20.73;;;;;;;-3.67;100.00;98069.59;6165810;23;20458;-94
2023/02/11 02:17:05;;;;;;;38.00;21.43;;;;;;;-3.65;100.00;98074.72;6169601;23;20013;-95
2023/02/11 02:19:44;;;;;;;40.37;21.50;;;;;;;-3.65;100.00;98070.41;6191778;23;20401;-95
2023/02/11 02:22:51;;;;;;;40.47;21.07;;;;;;;-3.62;100.00;98062.66;6191948;23;20428;-95
2023/02/11 02:25:55;;;;;;;39.70;21.77;;;;;;;-3.62;100.00;98060.09;6131491;23;20425;-95
2023/02/11 02:32:29;;;;;;;40.27;20.13;;;;;;;-3.50;100.00;98042.72;6174455;23;20036;-96
2023/02/11 02:38:49;;;;;;;37.87;20.83;;;;;;;-3.41;100.00;98032.28;6190590;23;20680;-95
2023/02/11 02:41:16;;;;;;;;;;;;;;;-3.40;100.00;98024.50;6165208;23;20440;-95
2023/02/11 02:43:46;;;;;;;35.77;19.53;;;;;;;-3.39;100.00;98025.34;6188952;23;19911;-95
2023/02/11 02:46:19;;;;;;;39.67;21.40;;;;;;;-3.28;100.00;98014.88;6188612;23;20413;-93
2023/02/11 02:48:48;;;;;;;44.37;22.30;;;;;;;-3.20;100.00;98008.69;6165087;23;20427;-93
2023/02/11 02:55:32;;;;;;;41.73;23.23;;;;;;;-3.14;100.00;98005.97;6190998;23;20343;-93
2023/02/11 02:58:04;;;;;;;40.70;22.27;;;;;;;-3.15;100.00;98012.03;6150671;23;20475;-92
2023/02/11 03:04:28;;;;;;;38.13;20.37;;;;;;;-3.03;100.00;98012.63;6189302;23;20442;-93
2023/02/11 03:07:08;;;;;;;38.63;21.00;;;;;;;-3.03;100.00;98002.34;6163527;23;20424;-92
2023/02/11 03:13:26;;;;;;;41.53;21.83;;;;;;;-2.89;100.00;97997.72;6190653;23;20677;-94
2023/02/11 03:19:44;;;;;;;43.60;22.13;;;;;;;-2.92;100.00;97996.09;6189372;23;20356;-94
2023/02/11 03:22:19;;;;;;;41.43;21.33;;;;;;;-2.83;100.00;97997.59;6187431;23;20436;-94
2023/02/11 03:24:45;;;;;;;45.77;22.07;;;;;;;-2.85;100.00;98009.66;6187522;23;20492;-94
2023/02/11 03:31:33;;;;;;;37.33;20.87;;;;;;;-3.00;100.00;98012.56;6189968;23;20348;-92
2023/02/11 03:34:28;;;;;;;43.13;21.13;;;;;;;-3.01;100.00;98021.19;6172479;23;20947;-94
2023/02/11 03:37:00;;;;;;;41.47;22.10;;;;;;;-3.04;100.00;98034.13;6209715;23;20428;-94
2023/02/11 03:39:35;;;;;;;35.93;21.23;;;;;;;-3.02;100.00;98033.19;6188027;23;20416;-93
2023/02/11 03:42:03;;;;;;;39.07;22.10;;;;;;;-2.99;100.00;98027.13;6187995;23;20436;-93
2023/02/11 03:48:24;;;;;;;38.37;22.17;;;;;;;-2.94;100.00;98031.31;6188322;23;20685;-93
2023/02/11 03:50:53;;;;;;;45.00;23.87;;;;;;;-2.94;100.00;98038.19;6163090;23;20428;-94
2023/02/11 03:57:05;;;;;;;36.67;20.97;;;;;;;-2.63;100.00;98025.50;6189227;23;20399;-93
2023/02/11 03:59:31;;;;;;;39.63;22.27;;;;;;;-2.62;100.00;98022.91;6163081;23;20412;-93
2023/02/11 04:05:43;;;;;;;39.37;21.93;;;;;;;-2.44;100.00;98019.03;6214132;22;20024;-93
2023/02/11 04:08:09;;;;;;;37.47;21.90;;;;;;;-2.37;100.00;98009.44;6162917;23;20462;-93
2023/02/11 04:14:22;;;;;;;40.90;21.57;;;;;;;-2.25;100.00;98011.72;6190081;23;20456;-93
2023/02/11 04:20:35;;;;;;;40.00;22.83;;;;;;;-2.20;100.00;98009.03;6190289;23;20023;-94
2023/02/11 04:23:01;;;;;;;42.47;24.60;;;;;;;-2.21;100.00;98004.78;6189310;23;20456;-92
2023/02/11 04:29:14;;;;;;;45.27;25.13;;;;;;;-2.08;100.00;98002.72;6189644;23;20069;-93
2023/02/11 04:31:40;;;;;;;48.47;24.53;;;;;;;-2.11;100.00;98010.53;6164516;23;20488;-93
2023/02/11 04:34:06;;;;;;;39.20;23.30;;;;;;;-2.07;100.00;98009.59;6204489;23;19997;-94
2023/02/11 04:36:31;;;;;;;47.30;25.70;;;;;;;-2.08;100.00;98006.13;6181013;23;20020;-93
2023/02/11 04:38:57;;;;;;;41.67;23.80;;;;;;;-2.07;100.00;98007.84;6163942;23;20024;-94
2023/02/11 04:41:23;;;;;;;46.70;24.33;;;;;;;-2.05;100.00;98012.97;6164793;23;20009;-93
2023/02/11 04:47:36;;;;;;;40.60;23.90;;;;;;;-1.92;100.00;98014.34;6198475;23;20101;-93
2023/02/11 04:50:02;;;;;;;44.03;24.67;;;;;;;-1.95;100.00;98006.69;6178672;23;20420;-93
2023/02/11 04:52:28;;;;;;;46.47;23.70;;;;;;;-1.96;100.00;98011.00;6179263;23;20409;-93
2023/02/11 04:58:41;;;;;;;46.63;24.63;;;;;;;-1.99;100.00;98005.91;6214434;23;20084;-94
2023/02/11 05:04:55;;;;;;;40.80;23.20;;;;;;;-2.02;100.00;98005.16;6198613;23;20475;-93
2023/02/11 05:11:16;;;;;;;42.80;23.67;;;;;;;-1.97;100.00;97987.84;6222741;23;20020;-93
2023/02/11 05:13:42;;;;;;;45.67;23.40;;;;;;;-2.01;100.00;97971.63;6193541;23;20420;-92
2023/02/11 05:16:08;;;;;;;45.70;23.47;;;;;;;-1.94;100.00;97968.00;6168874;23;20763;-93
2023/02/11 05:22:20;;;;;;;55.27;24.47;;;;;;;-1.92;100.00;97970.50;6224335;23;20019;-93
2023/02/11 05:28:34;;;;;;;41.70;23.00;;;;;;;-1.93;100.00;97984.28;6222623;23;20118;-95
2023/02/11 05:34:46;;;;;;;40.80;23.13;;;;;;;-1.94;100.00;97974.88;6222091;23;20363;-94
2023/02/11 05:37:12;;;;;;;43.73;24.67;;;;;;;-1.84;100.00;97970.34;6194266;23;20411;-93
2023/02/11 05:39:37;;;;;;;47.10;25.83;;;;;;;-1.82;100.00;97976.28;6196121;23;20012;-93
2023/02/11 05:42:03;;;;;;;43.83;24.60;;;;;;;-1.80;100.00;97980.50;6195706;23;20012;-93
2023/02/11 05:44:29;;;;;;;40.83;24.17;;;;;;;-1.79;100.00;97981.34;6194797;23;20012;-93
2023/02/11 05:46:55;;;;;;;44.27;24.63;;;;;;;-1.72;100.00;97973.41;6194366;23;20012;-92
2023/02/11 05:49:20;;;;;;;42.53;24.63;;;;;;;-1.73;100.00;97961.41;6169758;23;20091;-93
2023/02/11 05:51:46;;;;;;;42.57;25.90;;;;;;;-1.73;100.00;97966.56;6170905;23;20011;-93
2023/02/11 05:54:12;;;;;;;45.73;27.60;;;;;;;-1.77;100.00;97962.38;6173809;23;20019;-93
2023/02/11 05:56:38;;;;;;;45.57;25.20;;;;;;;-1.69;100.00;97942.38;6199838;23;20016;-93
2023/02/11 06:02:51;;;;;;;40.30;23.50;;;;;;;-1.58;100.00;97941.22;6225570;23;20018;-93
2023/02/11 06:05:17;;;;;;;45.07;24.70;;;;;;;-1.62;100.00;97957.69;6172198;23;20427;-92
2023/02/11 06:07:43;;;;;;;40.77;23.97;;;;;;;-1.57;100.00;97961.00;6196725;23;20013;-93
2023/02/11 06:13:56;;;;;;;41.90;22.33;;;;;;;-1.59;100.00;97979.09;6209243;23;20059;-94
2023/02/11 06:20:10;;;;;;;39.37;22.93;;;;;;;-1.54;100.00;97977.25;6197412;23;20020;-93
2023/02/11 06:26:23;;;;;;;41.73;22.07;;;;;;;-1.45;100.00;97966.63;6208078;23;20392;-93
2023/02/11 06:28:49;;;;;;;40.47;23.50;;;;;;;-1.43;100.00;97958.88;6150816;23;20416;-92
2023/02/11 06:35:03;;;;;;;37.80;22.40;;;;;;;-1.34;100.00;97962.91;6210698;23;20016;-93
2023/02/11 06:37:28;;;;;;;45.30;24.83;;;;;;;-1.34;100.00;97963.78;6156065;23;20444;-93
2023/02/11 06:43:42;;;;;;;37.23;22.10;;;;;;;-1.39;100.00;97978.53;6193904;23;20079;-95
2023/02/11 06:46:08;;;;;;;39.90;23.07;;;;;;;-1.36;100.00;97975.88;6167469;23;20444;-95
2023/02/11 06:48:34;;;;;;;42.53;22.47;;;;;;;-1.29;100.00;97967.06;6148080;23;20422;-94
2023/02/11 06:51:02;;;;;;;41.07;24.40;;;;;;;-1.23;100.00;97959.16;6143810;23;20448;-93
2023/02/11 06:53:28;;;;;;;41.70;23.07;;;;;;;-1.31;100.00;97953.38;6142483;23;20552;-92
2023/02/11 06:59:41;;;;;;;42.07;23.87;;;;;;;-1.28;100.00;97971.31;6191322;23;20024;-93
2023/02/11 07:02:10;;;;;;;36.87;22.10;;;;;;;-1.21;100.00;97974.56;6141484;23;20424;-94
2023/02/11 07:04:36;;;;;;;43.87;25.10;;;;;;;-1.19;100.00;97965.91;6141168;23;20024;-95
2023/02/11 07:10:49;;;;;;;42.97;22.93;;;;;;;-1.14;100.00;97965.78;6191951;23;20352;-93
2023/02/11 07:17:03;;;;;;;37.23;21.60;;;;;;;-1.01;100.00;97971.41;6191089;23;20484;-93
2023/02/11 07:19:29;;;;;;;40.07;22.37;;;;;;;-0.88;100.00;97966.75;6190527;23;20417;-92
2023/02/11 07:25:42;;;;;;;36.10;21.30;;;;;;;-0.74;100.00;97969.75;6192230;23;20040;-95
2023/02/11 07:28:08;;;;;;;37.47;21.73;;;;;;;-0.69;100.00;97967.03;6140666;23;20432;-92
2023/02/11 07:34:21;;;;;;;36.73;21.03;;;;;;;-0.61;100.00;97976.22;6191891;23;20103;-93
2023/02/11 07:36:47;;;;;;;40.90;21.87;;;;;;;-0.70;100.00;97973.94;6164485;23;20412;-93
2023/02/11 07:39:13;;;;;;;36.83;21.53;;;;;;;-0.68;100.00;97973.88;6189909;23;20053;-93
2023/02/11 07:41:39;;;;;;;41.63;23.13;;;;;;;-0.59;100.00;97960.69;6165111;23;20526;-93
2023/02/11 07:47:52;;;;;;;39.47;23.37;;;;;;;-0.64;100.00;97960.81;6208146;23;20348;-92
2023/02/11 07:50:22;;;;;;;39.43;22.17;;;;;;;-0.65;100.00;97958.28;6177452;23;20433;-92
2023/02/11 07:52:47;;;;;;;37.20;21.33;;;;;;;-0.54;100.00;97966.53;6168791;23;20409;-93
2023/02/11 07:59:02;;;;;;;49.80;25.80;;;;;;;-0.30;100.00;97970.94;6209448;23;20077;-92
2023/02/11 08:05:23;;;;;;;49.70;26.23;;;;;;;0.04;100.00;97972.41;6192863;22;20368;-93
2023/02/11 08:07:53;;;;;;;41.77;22.43;;;;;;;-0.01;100.00;97972.53;6165323;23;20939;-93
2023/02/11 08:10:19;;;;;;;37.10;21.97;;;;;;;0.18;100.00;97971.94;6192836;23;20472;-93
2023/02/11 08:12:45;;;;;;;39.30;24.57;;;;;;;0.17;100.00;97976.28;6164470;23;20425;-92
2023/02/11 08:15:11;;;;;;;34.67;20.63;;;;;;;0.33;100.00;97975.72;6163823;23;20413;-94
2023/02/11 08:17:37;;;;;;;44.63;24.77;;;;;;;0.38;100.00;97973.84;6165338;23;20016;-94
2023/02/11 08:20:06;;;;;;;39.33;20.57;;;;;;;0.43;100.00;97971.91;6165047;23;20009;-92
2023/02/11 08:22:34;;;;;;;34.97;19.73;;;;;;;0.59;100.00;97969.63;6165383;23;20013;-91
2023/02/11 08:25:00;;;;;;;36.37;21.43;;;;;;;0.77;100.00;97969.00;6171062;23;20420;-92
2023/02/11 08:27:28;;;;;;;42.80;24.50;;;;;;;1.33;100.00;97965.13;6191609;23;20405;-92
2023/02/11 08:29:54;;;;;;;40.63;24.33;;;;;;;1.39;100.00;97954.53;6165582;23;20424;-91
2023/02/11 08:32:24;;;;;;;36.20;21.13;;;;;;;1.17;100.00;97965.75;6192863;23;20404;-91
2023/02/11 08:34:53;;;;;;;39.73;21.60;;;;;;;1.03;100.00;97969.75;6164205;23;20416;-92
2023/02/11 08:37:19;;;;;;;44.67;24.83;;;;;;;1.06;100.00;97967.88;6165756;23;20459;-91
2023/02/11 08:39:46;;;;;;;34.00;20.27;;;;;;;1.07;100.00;97974.75;6164058;23;20448;-86
2023/02/11 08:42:18;;;;;;;27.97;16.70;;;;;;;2.67;100.00;97974.25;6157331;23;20495;-88
2023/02/11 08:48:30;;;;;;;37.03;22.13;;;;;;;2.13;100.00;97953.22;6194501;23;20376;-96
2023/02/11 08:54:47;;;;;;;31.37;19.23;;;;;;;1.76;100.00;97943.53;6196718;23;20065;-96
2023/02/11 08:57:12;;;;;;;31.47;18.63;;;;;;;1.75;100.00;97949.63;6171237;23;20423;-96
2023/02/11 09:03:25;;;;;;;29.17;16.40;;;;;;;2.15;100.00;97950.56;6197550;23;20082;-96
2023/02/11 09:05:55;;;;;;;31.97;18.87;;;;;;;2.10;100.00;97945.56;6202144;23;20443;-96
2023/02/11 09:08:21;;;;;;;29.90;17.77;;;;;;;2.03;100.00;97938.09;6202674;23;20436;-95
2023/02/11 09:10:56;;;;;;;25.53;15.97;;;;;;;2.20;100.00;97922.66;6177015;23;20411;-96
2023/02/11 09:13:21;;;;;;;26.83;15.57;;;;;;;2.49;100.00;97917.94;6205646;23;20017;-94
2023/02/11 09:19:09;;;;;;;23.77;14.73;;;;;;;2.63;100.00;97933.75;6215423;23;20439;-95
2023/02/11 09:21:34;;;;;;;26.20;14.97;;;;;;;2.39;100.00;97929.66;6215652;23;20431;-95
2023/02/11 09:24:00;;;;;;;26.00;14.87;;;;;;;2.47;100.00;97932.75;6190466;23;20003;-96
2023/02/11 09:26:29;;;;;;;24.23;14.17;;;;;;;2.28;100.00;97935.28;6220263;23;20008;-96
2023/02/11 09:28:56;;;;;;;27.87;14.70;;;;;;;2.55;100.00;97931.50;6199677;23;20084;-95
2023/02/11 09:35:09;;;;;;;22.70;14.07;;;;;;;2.47;100.00;97925.78;6246118;23;20367;-95
2023/02/11 09:37:35;;;;;;;23.57;13.33;;;;;;;2.47;100.00;97925.78;6205950;23;20428;-95
2023/02/11 09:44:01;;;;;;;24.97;13.67;;;;;;;3.07;100.00;97929.13;6224779;23;20027;-95
2023/02/11 09:50:27;;;;;;;21.57;12.53;;;;;;;4.40;100.00;97932.16;6224146;23;20886;-95
2023/02/11 09:53:10;;;;;;;22.50;13.07;;;;;;;4.96;100.00;97919.63;6176578;23;20389;-95
2023/02/11 09:59:23;;;;;;;21.07;13.27;;;;;;;5.10;100.00;97931.94;6224353;23;20039;-93
2023/02/11 10:02:26;;;;;;;25.87;15.87;;;;;;;4.52;100.00;97950.66;6198836;23;20091;-93
2023/02/11 10:04:54;;;;;;;26.20;15.93;;;;;;;4.09;100.00;97953.72;6121027;23;20012;-92
2023/02/11 10:10:50;;;;;;;26.73;13.90;;;;;;;4.04;100.00;97966.09;6198647;23;20019;-94
2023/02/11 10:16:55;;;;;;;24.13;14.17;;;;;;;4.34;100.00;97958.50;6197820;23;20031;-93
2023/02/11 10:20:00;;;;;;;21.20;13.23;;;;;;;5.10;100.00;97952.81;6199607;23;20020;-93
2023/02/11 10:22:49;;;;;;;21.33;13.57;;;;;;;6.84;100.00;97942.75;6174312;23;20511;-92
2023/02/11 10:29:32;;;;;;;21.77;12.53;;;;;;;6.79;100.00;97931.72;6226480;23;20039;-94
2023/02/11 10:35:45;;;;;;;21.70;11.40;;;;;;;7.45;100.00;97918.91;6223581;23;20027;-96
2023/02/11 10:42:12;;;;;;;19.37;10.97;;;;;;;7.76;100.00;97925.63;6225080;23;20019;-95
2023/02/11 10:45:18;;;;;;;16.63;10.87;;;;;;;8.85;100.00;97910.41;6178550;23;20017;-95
2023/02/11 10:51:33;;;;;;;19.50;12.17;;;;;;;6.77;100.00;97907.47;6226406;23;20015;-95
2023/02/11 10:54:07;;;;;;;20.67;12.40;;;;;;;7.20;100.00;97902.13;6172695;23;20013;-96
2023/02/11 10:56:46;;;;;;;20.30;12.13;;;;;;;7.73;100.00;97910.94;6201650;23;20016;-95
2023/02/11 10:59:42;;;;;;;18.53;10.77;;;;;;;8.44;100.00;97912.34;6211007;22;20087;-85
2023/02/11 11:02:34;;;;;;;18.53;10.93;;;;;;;7.38;100.00;97912.38;6182994;23;20016;-88
2023/02/11 11:05:15;;;;;;;17.63;10.57;;;;;;;7.26;100.00;97907.00;6184502;23;20028;-87
2023/02/11 11:07:52;;;;;;;17.20;10.83;;;;;;;7.59;100.00;97908.38;6184786;23;20016;-88
2023/02/11 11:11:04;;;;;;;16.73;10.47;;;;;;;8.00;100.00;97902.19;6159528;23;20047;-88
2023/02/11 11:13:57;;;;;;;17.63;11.20;;;;;;;8.20;100.00;97898.25;6037580;23;20042;-88
2023/02/11 11:16:25;;;;;;;18.50;11.77;;;;;;;8.30;100.00;97898.47;6157842;23;20100;-88
2023/02/11 11:19:13;;;;;;;17.63;11.63;;;;;;;9.30;100.00;97884.50;6159930;23;20067;-88
2023/02/11 11:22:01;;;;;;;18.17;11.37;;;;;;;9.37;100.00;97894.44;6184873;23;20031;-88
2023/02/11 11:24:43;;;;;;;17.90;11.03;;;;;;;9.85;100.00;97890.94;6162135;23;20590;-88
2023/02/11 11:27:22;;;;;;;22.33;13.23;;;;;;;9.38;100.00;97885.59;6161083;23;20080;-88
2023/02/11 11:29:54;;;;;;;19.63;11.30;;;;;;;9.53;100.00;97880.19;6161611;23;20067;-86
2023/02/11 11:32:27;;;;;;;15.03;10.87;;;;;;;9.89;100.00;97874.00;6159832;23;20012;-88
2023/02/11 11:35:02;;;;;;;202.52;70.68;;;;;;;9.98;100.00;97875.09;6161012;23;20063;-88
2023/02/11 11:37:30;;;;;;;42.67;15.90;;;;;;;10.31;100.00;97869.94;6160972;23;20040;-87
2023/02/11 11:40:26;;;;;;;166.87;66.87;;;;;;;10.41;100.00;97862.19;6160899;23;20016;-88
2023/02/11 11:43:18;;;;;;;22.03;13.43;;;;;;;10.51;100.00;97859.69;6160343;23;20043;-88
2023/02/11 11:45:57;;;;;;;20.40;11.97;;;;;;;11.23;100.00;97861.88;6159834;23;20458;-88
2023/02/11 11:48:45;;;;;;;15.67;10.37;;;;;;;10.44;100.00;97855.88;6160432;23;20017;-88
2023/02/11 11:51:11;;;;;;;16.40;10.07;;;;;;;10.43;100.00;97855.03;6159229;23;20013;-88
2023/02/11 11:54:10;;;;;;;17.53;10.60;;;;;;;10.74;100.00;97868.44;6159274;23;20553;-88
2023/02/11 11:57:12;;;;;;;13.70;9.23;;;;;;;10.89;100.00;97866.38;6160998;23;20067;-88
2023/02/11 11:59:37;;;;;;;17.80;10.10;;;;;;;10.19;100.00;97877.91;6141529;23;20046;-88
2023/02/11 12:02:40;;;;;;;14.60;9.23;;;;;;;10.27;100.00;97872.94;6190660;23;19996;-88
2023/02/11 12:05:40;;;;;;;13.70;8.90;;;;;;;9.26;100.00;97870.75;6191846;23;20019;-88
2023/02/11 12:08:34;;;;;;;16.57;11.00;;;;;;;9.18;100.00;97876.53;6215405;23;20020;-88
2023/02/11 12:11:15;;;;;;;14.32;9.20;;;;;;;9.45;100.00;97875.47;6190369;23;20020;-88
2023/02/11 12:13:44;;;;;;;16.03;9.33;;;;;;;10.27;100.00;97886.91;6215908;23;20506;-88
2023/02/11 12:16:26;;;;;;;13.73;8.93;;;;;;;10.44;100.00;97883.00;6190431;23;20100;-88
2023/02/11 12:22:21;;;;;;;15.67;10.00;;;;;;;9.02;100.00;97880.38;6215111;23;20073;-88
2023/02/11 12:24:58;;;;;;;15.00;10.20;;;;;;;9.18;100.00;97878.31;6190989;23;20008;-88
2023/02/11 12:28:09;;;;;;;17.53;12.00;;;;;;;9.03;100.00;97877.66;6190932;23;20446;-88
2023/02/11 12:30:49;;;;;;;16.17;10.97;;;;;;;10.10;100.00;97859.25;6191447;23;20019;-88
2023/02/11 12:33:19;;;;;;;15.93;10.40;;;;;;;10.58;100.00;97858.25;6192505;23;20444;-86
2023/02/11 12:35:51;;;;;;;15.53;9.87;;;;;;;10.86;100.00;97859.56;6192537;23;20008;-88
2023/02/11 12:39:00;;;;;;;14.97;9.83;;;;;;;10.54;100.00;97855.03;6193162;23;20022;-87
2023/02/11 12:44:41;;;;;;;26.90;16.00;;;;;;;11.91;100.00;97852.81;6228807;22;20012;-88
2023/02/11 12:47:30;;;;;;;15.25;9.40;;;;;;;11.45;100.00;97856.56;6216488;23;20019;-90
2023/02/11 12:50:33;;;;;;;14.10;9.60;;;;;;;10.36;100.00;97845.91;6192379;23;20117;-86
2023/02/11 12:53:09;;;;;;;16.73;9.65;;;;;;;9.62;100.00;97858.50;6191993;23;20054;-87
2023/02/11 12:55:39;;;;;;;15.43;9.73;;;;;;;9.76;100.00;97863.59;6216058;23;20020;-86
2023/02/11 12:58:15;;;;;;;14.37;9.83;;;;;;;9.11;100.00;97867.44;6191457;23;20020;-86
2023/02/11 13:00:49;;;;;;;13.60;9.33;;;;;;;9.15;100.00;97866.28;6191731;23;20012;-86
2023/02/11 13:03:34;;;;;;;15.80;9.57;;;;;;;9.50;100.00;97857.63;6193153;23;20027;-87
2023/02/11 13:06:08;;;;;;;13.80;9.07;;;;;;;8.90;100.00;97858.47;6191354;23;20016;-87
2023/02/11 13:08:44;;;;;;;16.83;9.17;;;;;;;8.87;100.00;97856.06;6192354;23;20400;-87
2023/02/11 13:11:19;;;;;;;14.17;9.63;;;;;;;8.67;100.00;97855.69;6217766;23;20024;-87
2023/02/11 13:13:44;;;;;;;22.00;15.20;;;;;;;8.81;100.00;97840.75;6217062;23;20073;-87
2023/02/11 13:16:39;;;;;;;22.33;13.53;;;;;;;8.78;100.00;97840.97;6193902;23;20087;-87
2023/02/11 13:19:34;;;;;;;15.07;10.20;;;;;;;8.75;100.00;97839.41;6215911;23;20019;-86
2023/02/11 13:22:37;;;;;;;24.40;12.30;;;;;;;9.24;100.00;97828.00;6191064;23;20035;-88
2023/02/11 13:25:23;;;;;;;18.80;10.60;;;;;;;9.48;100.00;97827.16;6193615;23;20023;-87
2023/02/11 13:27:57;;;;;;;14.20;9.80;;;;;;;9.50;100.00;97833.97;6215860;23;20015;-87
2023/02/11 13:30:39;;;;;;;18.37;10.10;;;;;;;9.09;100.00;97832.59;6215175;23;20016;-87
2023/02/11 13:33:15;;;;;;;17.47;10.20;;;;;;;8.94;100.00;97825.81;6217327;23;20067;-88
2023/02/11 13:35:55;;;;;;;18.83;10.77;;;;;;;8.78;100.00;97826.06;6191916;23;20019;-87
2023/02/11 13:38:29;;;;;;;14.77;9.40;;;;;;;8.61;100.00;97835.13;6195507;23;20130;-87
2023/02/11 13:41:14;;;;;;;18.57;11.00;;;;;;;8.64;100.00;97834.91;6217536;23;20019;-87
2023/02/11 13:43:43;;;;;;;163.80;34.13;;;;;;;8.73;100.00;97829.03;6218660;23;20023;-88
2023/02/11 13:46:12;;;;;;;80.67;21.83;;;;;;;8.37;100.00;97828.94;6193560;23;20011;-89
2023/02/11 13:48:51;;;;;;;32.93;14.17;;;;;;;8.59;100.00;97826.53;6193455;23;20061;-88
2023/02/11 13:51:38;;;;;;;32.80;13.63;;;;;;;8.30;100.00;97823.28;6193450;23;20020;-88
2023/02/11 13:54:06;;;;;;;26.33;14.37;;;;;;;8.40;100.00;97829.59;6193871;23;20382;-87
2023/02/11 13:56:39;;;;;;;21.43;13.23;;;;;;;8.09;100.00;97833.47;6194355;23;20012;-88
2023/02/11 13:59:26;;;;;;;19.15;11.63;;;;;;;7.76;100.00;97834.78;6193910;23;20097;-88
2023/02/11 14:10:57;;;;;;;45.50;18.13;;;;;;;7.56;100.00;97841.34;6221008;23;20016;-88
2023/02/11 14:13:32;;;;;;;29.40;16.93;;;;;;;7.30;100.00;97844.81;6194072;23;20040;-87
2023/02/11 14:16:21;;;;;;;38.00;15.70;;;;;;;7.42;100.00;97837.97;6192481;23;20422;-87
2023/02/11 14:18:54;;;;;;;22.50;11.83;;;;;;;7.44;100.00;97836.06;6190890;23;20016;-87
2023/02/11 14:21:26;;;;;;;21.75;10.88;;;;;;;7.48;100.00;97833.19;6199421;23;20046;-88
2023/02/11 14:24:05;;;;;;;23.20;12.07;;;;;;;7.30;100.00;97837.81;6191375;23;20110;-87
2023/02/11 14:27:04;;;;;;;28.70;14.03;;;;;;;7.19;100.00;97837.69;6190126;23;20036;-85
2023/02/11 14:29:44;;;;;;;22.37;11.30;;;;;;;7.11;100.00;97834.72;6190685;23;20047;-85
2023/02/11 14:32:57;;;;;;;44.10;15.37;;;;;;;7.18;100.00;97843.03;6215191;23;20016;-84
2023/02/11 14:35:41;;;;;;;26.17;12.57;;;;;;;7.08;100.00;97846.22;6146659;23;20046;-85
2023/02/11 14:38:22;;;;;;;24.13;11.60;;;;;;;6.97;100.00;97840.81;6191281;23;20210;-85
2023/02/11 14:41:15;;;;;;;25.83;11.57;;;;;;;6.95;100.00;97836.63;6190174;23;20012;-86
2023/02/11 14:43:49;;;;;;;1331.87;234.03;;;;;;;8.83;100.00;97842.34;6188832;23;20087;-84
2023/02/11 14:46:19;;;;;;;48.97;20.03;;;;;;;7.73;100.00;97836.78;6189615;23;20018;-89
2023/02/11 14:48:51;;;;;;;28.60;12.47;;;;;;;7.43;100.00;97847.50;6191296;23;20016;-89
2023/02/11 14:51:25;;;;;;;18.57;11.13;;;;;;;7.18;100.00;97846.47;6190221;23;20012;-87
2023/02/11 14:54:03;;;;;;;;;;;;;;;7.32;100.00;97843.78;6190216;23;20070;-86
2023/02/11 14:57:05;;;;;;;31.77;13.33;;;;;;;7.24;100.00;97846.09;6189809;23;19907;-85
2023/02/11 14:59:35;;;;;;;26.17;11.70;;;;;;;6.95;100.00;97845.31;6208675;23;20018;-86
2023/02/11 15:02:01;;;;;;;18.73;11.57;;;;;;;7.00;100.00;97858.09;6214541;23;20394;-86
2023/02/11 15:04:30;;;;;;;21.33;11.73;;;;;;;7.13;100.00;97861.59;6215667;23;20372;-87
2023/02/11 15:07:05;;;;;;;21.57;11.70;;;;;;;7.09;100.00;97857.50;6191514;23;20043;-88
2023/02/11 15:09:44;;;;;;;29.00;12.67;;;;;;;7.08;100.00;97866.31;6191514;23;20016;-88
2023/02/11 15:12:22;;;;;;;18.50;11.63;;;;;;;6.96;100.00;97865.28;6190735;23;20019;-86
2023/02/11 15:14:52;;;;;;;17.27;10.93;;;;;;;6.91;100.00;97869.13;6192880;23;20012;-86
2023/02/11 15:17:22;;;;;;;23.03;10.93;;;;;;;6.98;100.00;97871.28;6212855;22;20007;-86
2023/02/11 15:19:52;;;;;;;18.97;11.77;;;;;;;6.85;100.00;97873.00;6210175;23;20012;-87
2023/02/11 15:22:31;;;;;;;29.53;15.80;;;;;;;6.85;100.00;97871.22;6189048;23;20355;-87
2023/02/11 15:25:02;;;;;;;40.10;25.53;;;;;;;6.84;100.00;97874.78;6190339;23;20026;-88
2023/02/11 15:27:40;;;;;;;199.73;36.87;;;;;;;7.31;100.00;97876.16;6189742;23;20094;-88
2023/02/11 15:30:21;;;;;;;455.90;69.10;;;;;;;7.86;100.00;97871.69;6190068;23;20363;-87
2023/02/11 15:32:58;;;;;;;295.37;51.30;;;;;;;7.70;100.00;97874.47;6214882;23;20020;-85
2023/02/11 15:35:36;;;;;;;33.73;14.07;;;;;;;7.58;100.00;97875.31;6212279;23;20012;-88
2023/02/11 15:38:04;;;;;;;47.97;32.70;;;;;;;6.98;100.00;97886.13;6189131;23;20016;-87
2023/02/11 15:40:33;;;;;;;28.23;18.30;;;;;;;7.02;100.00;97895.47;6188375;23;20023;-88
2023/02/11 15:43:09;;;;;;;23.87;12.73;;;;;;;6.84;100.00;97894.81;6188831;23;20012;-87
2023/02/11 15:45:37;;;;;;;24.17;14.77;;;;;;;6.55;100.00;97896.63;6189365;23;20020;-87
2023/02/11 15:48:06;;;;;;;20.67;12.43;;;;;;;6.40;100.00;97893.16;6190620;23;20451;-89
2023/02/11 15:50:36;;;;;;;24.27;12.97;;;;;;;6.36;100.00;97900.34;6189035;23;20058;-88
2023/02/11 15:53:22;;;;;;;25.60;13.63;;;;;;;6.38;100.00;97898.50;6189856;23;20012;-86
2023/02/11 15:55:51;;;;;;;20.87;12.83;;;;;;;6.36;100.00;97899.50;6239005;23;20046;-86